sensor_id;sensor_type;location;lat;lon;timestamp;temperature;humidity
12223;DHT22;6174;49.058;8.524;2023-10-31T06:02:36;12.00;99.90
12223;DHT22;6174;49.058;8.524;2023-10-31T06:05:04;11.90;99.90
12223;DHT22;6174;49.058;8.524;2023-10-31T06:07:31;11.90;99.90
12223;DHT22;6174;49.058;8.524;2023-10-31T06:10:00;12.00;99.90
12223;DHT22;6174;49.058;8.524;2023-10-31T06:12:30;11.90;99.90
12223;DHT22;6174;49.058;8.524;2023-10-31T06:14:57;12.00;99.90
12223;DHT22;6174;49.058;8.524;2023-10-31T06:17:23;11.90;99.90
12223;DHT22;6174;49.058;8.524;2023-10-31T06:20:03;12.00;99.90
12223;DHT22;6174;49.058;8.524;2023-10-31T06:22:31;12.00;99.90
12223;DHT22;6174;49.058;8.524;2023-10-31T06:25:00;11.90;99.90
12223;DHT22;6174;49.058;8.524;2023-10-31T06:27:43;11.90;99.90
12223;DHT22;6174;49.058;8.524;2023-10-31T06:30:22;12.60;99.90
12223;DHT22;6174;49.058;8.524;2023-10-31T06:32:57;12.10;99.90
12223;DHT22;6174;49.058;8.524;2023-10-31T06:38:27;12.30;99.90
12223;DHT22;6174;49.058;8.524;2023-10-31T06:40:58;12.10;99.90
12223;DHT22;6174;49.058;8.524;2023-10-31T06:43:39;11.30;99.90
12223;DHT22;6174;49.058;8.524;2023-10-31T06:46:06;11.90;99.90
12223;DHT22;6174;49.058;8.524;2023-10-31T06:48:38;12.10;99.90
12223;DHT22;6174;49.058;8.524;2023-10-31T06:54:15;11.80;99.90
12223;DHT22;6174;49.058;8.524;2023-10-31T06:56:52;12.30;99.90
12223;DHT22;6174;49.058;8.524;2023-10-31T06:59:34;12.00;99.90
12223;DHT22;6174;49.058;8.524;2023-10-31T07:02:55;12.00;99.90
12223;DHT22;6174;49.058;8.524;2023-10-31T07:05:34;12.00;99.90
12223;DHT22;6174;49.058;8.524;2023-10-31T07:39:07;12.20;99.90
12223;DHT22;6174;49.058;8.524;2023-10-31T07:42:10;12.20;99.90
12223;DHT22;6174;49.058;8.524;2023-10-31T07:45:09;12.20;99.90
12223;DHT22;6174;49.058;8.524;2023-10-31T07:47:45;12.10;99.90
12223;DHT22;6174;49.058;8.524;2023-10-31T07:50:45;12.10;99.90
12223;DHT22;6174;49.058;8.524;2023-10-31T08:04:08;12.30;99.90
12223;DHT22;6174;49.058;8.524;2023-10-31T08:16:06;12.40;99.90
12223;DHT22;6174;49.058;8.524;2023-10-31T08:18:39;12.40;99.90
12223;DHT22;6174;49.058;8.524;2023-10-31T08:21:10;12.40;99.90
12223;DHT22;6174;49.058;8.524;2023-10-31T09:42:51;13.50;99.90
12223;DHT22;6174;49.058;8.524;2023-10-31T09:49:11;13.40;99.90
12223;DHT22;6174;49.058;8.524;2023-10-31T09:52:04;13.50;99.90
12223;DHT22;6174;49.058;8.524;2023-10-31T10:57:08;13.60;99.90
12223;DHT22;6174;49.058;8.524;2023-10-31T13:22:22;14.00;99.90
12223;DHT22;6174;49.058;8.524;2023-10-31T13:24:49;14.70;99.90
12223;DHT22;6174;49.058;8.524;2023-10-31T13:27:16;13.90;99.90
12223;DHT22;6174;49.058;8.524;2023-10-31T13:29:43;13.80;99.90
12223;DHT22;6174;49.058;8.524;2023-10-31T13:32:11;13.80;99.90
12223;DHT22;6174;49.058;8.524;2023-10-31T14:19:27;13.90;99.90
12223;DHT22;6174;49.058;8.524;2023-10-31T14:29:05;13.80;99.90
12223;DHT22;6174;49.058;8.524;2023-10-31T15:45:13;13.50;99.90
12223;DHT22;6174;49.058;8.524;2023-10-31T15:54:31;13.50;99.90
12223;DHT22;6174;49.058;8.524;2023-10-31T16:18:57;13.50;99.90
12223;DHT22;6174;49.058;8.524;2023-10-31T16:22:19;13.50;99.90
12223;DHT22;6174;49.058;8.524;2023-10-31T16:25:21;13.50;99.90
12223;DHT22;6174;49.058;8.524;2023-10-31T16:27:49;13.80;99.90
12223;DHT22;6174;49.058;8.524;2023-10-31T16:30:18;13.00;99.90
12223;DHT22;6174;49.058;8.524;2023-10-31T16:32:59;13.50;99.90
12223;DHT22;6174;49.058;8.524;2023-10-31T16:35:27;13.50;99.90
12223;DHT22;6174;49.058;8.524;2023-10-31T16:37:55;13.30;99.90
12223;DHT22;6174;49.058;8.524;2023-10-31T16:40:22;13.40;99.90
12223;DHT22;6174;49.058;8.524;2023-10-31T16:42:52;13.30;99.90
12223;DHT22;6174;49.058;8.524;2023-10-31T16:45:23;13.40;99.90
12223;DHT22;6174;49.058;8.524;2023-10-31T16:47:50;13.30;99.90
12223;DHT22;6174;49.058;8.524;2023-10-31T16:50:18;13.30;99.90
12223;DHT22;6174;49.058;8.524;2023-10-31T16:52:47;13.30;99.90
12223;DHT22;6174;49.058;8.524;2023-10-31T16:55:14;13.20;99.90
12223;DHT22;6174;49.058;8.524;2023-10-31T16:57:42;13.20;99.90
12223;DHT22;6174;49.058;8.524;2023-10-31T17:00:10;13.20;99.90
12223;DHT22;6174;49.058;8.524;2023-10-31T17:02:39;13.20;99.90
12223;DHT22;6174;49.058;8.524;2023-10-31T17:05:07;13.20;99.90
12223;DHT22;6174;49.058;8.524;2023-10-31T17:07:38;13.10;99.90
12223;DHT22;6174;49.058;8.524;2023-10-31T17:10:12;13.20;99.90
12223;DHT22;6174;49.058;8.524;2023-10-31T17:12:39;13.20;99.90
12223;DHT22;6174;49.058;8.524;2023-10-31T17:15:08;13.20;99.90
12223;DHT22;6174;49.058;8.524;2023-10-31T17:17:35;13.30;99.90
12223;DHT22;6174;49.058;8.524;2023-10-31T17:20:03;13.20;99.90
12223;DHT22;6174;49.058;8.524;2023-10-31T17:22:30;13.20;99.90
12223;DHT22;6174;49.058;8.524;2023-10-31T17:25:01;13.20;99.90
12223;DHT22;6174;49.058;8.524;2023-10-31T17:27:29;13.20;99.90
12223;DHT22;6174;49.058;8.524;2023-10-31T17:29:58;13.10;99.90
12223;DHT22;6174;49.058;8.524;2023-10-31T17:32:27;13.10;99.90
12223;DHT22;6174;49.058;8.524;2023-10-31T17:34:54;13.10;99.90
12223;DHT22;6174;49.058;8.524;2023-10-31T17:37:22;13.10;99.90
12223;DHT22;6174;49.058;8.524;2023-10-31T17:39:49;13.10;99.90
12223;DHT22;6174;49.058;8.524;2023-10-31T17:42:16;13.10;99.90
12223;DHT22;6174;49.058;8.524;2023-10-31T17:44:45;13.00;99.90
12223;DHT22;6174;49.058;8.524;2023-10-31T17:47:12;13.00;99.90
12223;DHT22;6174;49.058;8.524;2023-10-31T17:49:41;13.00;99.90
12223;DHT22;6174;49.058;8.524;2023-10-31T17:52:08;13.00;99.90
12223;DHT22;6174;49.058;8.524;2023-10-31T17:54:35;12.90;99.90
12223;DHT22;6174;49.058;8.524;2023-10-31T17:57:02;12.90;99.90
12223;DHT22;6174;49.058;8.524;2023-10-31T17:59:29;12.80;99.90
12223;DHT22;6174;49.058;8.524;2023-10-31T18:01:58;12.70;99.90
12223;DHT22;6174;49.058;8.524;2023-10-31T18:04:25;12.90;99.90
12223;DHT22;6174;49.058;8.524;2023-10-31T18:06:52;12.90;99.90
12223;DHT22;6174;49.058;8.524;2023-10-31T18:09:19;13.00;99.90
12223;DHT22;6174;49.058;8.524;2023-10-31T18:11:46;13.00;99.90
12223;DHT22;6174;49.058;8.524;2023-10-31T18:14:13;13.00;99.90
12223;DHT22;6174;49.058;8.524;2023-10-31T18:19:18;12.90;99.90
12223;DHT22;6174;49.058;8.524;2023-10-31T18:21:48;12.90;99.90
12223;DHT22;6174;49.058;8.524;2023-10-31T18:24:15;12.90;99.90
12223;DHT22;6174;49.058;8.524;2023-10-31T18:26:42;12.80;99.90
12223;DHT22;6174;49.058;8.524;2023-10-31T18:29:09;12.80;99.90
12223;DHT22;6174;49.058;8.524;2023-10-31T18:31:37;12.80;99.90
12223;DHT22;6174;49.058;8.524;2023-10-31T18:34:04;12.90;99.90
12223;DHT22;6174;49.058;8.524;2023-10-31T18:36:32;12.90;99.90
12223;DHT22;6174;49.058;8.524;2023-10-31T18:39:00;12.90;99.90
12223;DHT22;6174;49.058;8.524;2023-10-31T18:41:28;12.90;99.90
12223;DHT22;6174;49.058;8.524;2023-10-31T18:43:55;12.90;99.90
12223;DHT22;6174;49.058;8.524;2023-10-31T18:46:22;12.90;99.90
12223;DHT22;6174;49.058;8.524;2023-10-31T18:48:48;12.90;99.90
12223;DHT22;6174;49.058;8.524;2023-10-31T18:51:17;12.80;99.90
12223;DHT22;6174;49.058;8.524;2023-10-31T18:53:45;12.80;99.90
12223;DHT22;6174;49.058;8.524;2023-10-31T18:56:14;12.70;99.90
12223;DHT22;6174;49.058;8.524;2023-10-31T18:58:40;12.70;99.90
12223;DHT22;6174;49.058;8.524;2023-10-31T19:01:07;12.80;99.90
12223;DHT22;6174;49.058;8.524;2023-10-31T19:03:34;12.80;99.90
12223;DHT22;6174;49.058;8.524;2023-10-31T19:06:01;12.80;99.90
12223;DHT22;6174;49.058;8.524;2023-10-31T19:08:28;12.80;99.90
12223;DHT22;6174;49.058;8.524;2023-10-31T19:10:56;12.70;99.90
12223;DHT22;6174;49.058;8.524;2023-10-31T19:13:23;12.80;99.90
12223;DHT22;6174;49.058;8.524;2023-10-31T19:15:50;12.80;99.90
12223;DHT22;6174;49.058;8.524;2023-10-31T19:18:17;12.70;99.90
12223;DHT22;6174;49.058;8.524;2023-10-31T19:20:43;12.70;99.90
12223;DHT22;6174;49.058;8.524;2023-10-31T19:23:10;12.70;99.90
12223;DHT22;6174;49.058;8.524;2023-10-31T19:25:37;12.70;99.90
12223;DHT22;6174;49.058;8.524;2023-10-31T19:28:06;12.80;99.90
12223;DHT22;6174;49.058;8.524;2023-10-31T19:30:33;12.80;99.90
12223;DHT22;6174;49.058;8.524;2023-10-31T19:33:00;12.80;99.90
12223;DHT22;6174;49.058;8.524;2023-10-31T19:35:27;12.80;99.90
12223;DHT22;6174;49.058;8.524;2023-10-31T19:37:54;12.80;99.90
12223;DHT22;6174;49.058;8.524;2023-10-31T19:40:21;12.80;99.90
12223;DHT22;6174;49.058;8.524;2023-10-31T19:42:50;12.70;99.90
12223;DHT22;6174;49.058;8.524;2023-10-31T19:45:18;12.70;99.90
12223;DHT22;6174;49.058;8.524;2023-10-31T19:47:45;12.60;99.90
12223;DHT22;6174;49.058;8.524;2023-10-31T19:50:12;12.70;99.90
12223;DHT22;6174;49.058;8.524;2023-10-31T19:52:39;12.70;99.90
12223;DHT22;6174;49.058;8.524;2023-10-31T19:55:07;12.70;99.90
12223;DHT22;6174;49.058;8.524;2023-10-31T19:57:34;12.60;99.90
12223;DHT22;6174;49.058;8.524;2023-10-31T20:00:02;12.50;99.90
12223;DHT22;6174;49.058;8.524;2023-10-31T20:02:32;12.70;99.90
12223;DHT22;6174;49.058;8.524;2023-10-31T20:04:58;12.70;99.90
12223;DHT22;6174;49.058;8.524;2023-10-31T20:07:25;12.80;99.90
12223;DHT22;6174;49.058;8.524;2023-10-31T20:09:52;12.80;99.90
12223;DHT22;6174;49.058;8.524;2023-10-31T20:12:19;12.90;99.90
12223;DHT22;6174;49.058;8.524;2023-10-31T20:14:48;12.90;99.90
12223;DHT22;6174;49.058;8.524;2023-10-31T20:17:17;12.90;99.90
12223;DHT22;6174;49.058;8.524;2023-10-31T20:19:48;12.90;99.90
12223;DHT22;6174;49.058;8.524;2023-10-31T20:22:15;12.90;99.90
12223;DHT22;6174;49.058;8.524;2023-10-31T20:24:42;12.90;99.90
12223;DHT22;6174;49.058;8.524;2023-10-31T20:27:08;12.90;99.90
12223;DHT22;6174;49.058;8.524;2023-10-31T20:29:35;12.90;99.90
12223;DHT22;6174;49.058;8.524;2023-10-31T20:32:07;13.00;99.90
12223;DHT22;6174;49.058;8.524;2023-10-31T20:34:34;12.90;99.90
12223;DHT22;6174;49.058;8.524;2023-10-31T20:37:02;12.90;99.90
12223;DHT22;6174;49.058;8.524;2023-10-31T20:39:28;12.80;99.90
12223;DHT22;6174;49.058;8.524;2023-10-31T20:41:55;12.90;99.90
12223;DHT22;6174;49.058;8.524;2023-10-31T20:44:22;12.90;99.90
12223;DHT22;6174;49.058;8.524;2023-10-31T20:46:49;12.80;99.90
12223;DHT22;6174;49.058;8.524;2023-10-31T20:49:17;12.90;99.90
12223;DHT22;6174;49.058;8.524;2023-10-31T20:51:44;12.90;99.90
12223;DHT22;6174;49.058;8.524;2023-10-31T20:54:12;12.90;99.90
12223;DHT22;6174;49.058;8.524;2023-10-31T20:56:39;12.90;99.90
12223;DHT22;6174;49.058;8.524;2023-10-31T20:59:05;12.80;99.90
12223;DHT22;6174;49.058;8.524;2023-10-31T21:01:32;12.80;99.90
12223;DHT22;6174;49.058;8.524;2023-10-31T21:03:59;12.80;99.90
12223;DHT22;6174;49.058;8.524;2023-10-31T21:06:26;12.90;99.90
12223;DHT22;6174;49.058;8.524;2023-10-31T21:08:54;12.80;99.90
12223;DHT22;6174;49.058;8.524;2023-10-31T21:11:22;12.80;99.90
12223;DHT22;6174;49.058;8.524;2023-10-31T21:13:49;12.80;99.90
12223;DHT22;6174;49.058;8.524;2023-10-31T21:16:16;12.90;99.90
12223;DHT22;6174;49.058;8.524;2023-10-31T21:18:43;12.90;99.90
12223;DHT22;6174;49.058;8.524;2023-10-31T21:21:09;12.90;99.90
12223;DHT22;6174;49.058;8.524;2023-10-31T21:23:36;12.80;99.90
12223;DHT22;6174;49.058;8.524;2023-10-31T21:26:03;12.70;99.90
12223;DHT22;6174;49.058;8.524;2023-10-31T21:28:32;12.70;99.90
12223;DHT22;6174;49.058;8.524;2023-10-31T21:30:58;12.80;99.90
12223;DHT22;6174;49.058;8.524;2023-10-31T21:33:25;12.80;99.90
12223;DHT22;6174;49.058;8.524;2023-10-31T21:35:53;12.80;99.90
12223;DHT22;6174;49.058;8.524;2023-10-31T21:38:20;12.70;99.90
12223;DHT22;6174;49.058;8.524;2023-10-31T21:40:46;12.80;99.90
12223;DHT22;6174;49.058;8.524;2023-10-31T21:43:13;12.80;99.90
12223;DHT22;6174;49.058;8.524;2023-10-31T21:45:42;12.60;99.90
12223;DHT22;6174;49.058;8.524;2023-10-31T21:48:09;12.80;99.90
12223;DHT22;6174;49.058;8.524;2023-10-31T21:50:36;12.80;99.90
12223;DHT22;6174;49.058;8.524;2023-10-31T21:53:02;12.80;99.90
12223;DHT22;6174;49.058;8.524;2023-10-31T21:55:29;12.70;99.90
12223;DHT22;6174;49.058;8.524;2023-10-31T21:57:56;12.70;99.90
12223;DHT22;6174;49.058;8.524;2023-10-31T22:00:23;12.80;99.90
12223;DHT22;6174;49.058;8.524;2023-10-31T22:02:51;12.90;99.90
12223;DHT22;6174;49.058;8.524;2023-10-31T22:05:18;12.80;99.90
12223;DHT22;6174;49.058;8.524;2023-10-31T22:07:45;12.70;99.90
12223;DHT22;6174;49.058;8.524;2023-10-31T22:10:12;12.70;99.90
12223;DHT22;6174;49.058;8.524;2023-10-31T22:12:39;12.80;99.90
12223;DHT22;6174;49.058;8.524;2023-10-31T22:15:06;12.70;99.90
12223;DHT22;6174;49.058;8.524;2023-10-31T22:17:33;12.80;99.90
12223;DHT22;6174;49.058;8.524;2023-10-31T22:20:01;12.50;99.90
12223;DHT22;6174;49.058;8.524;2023-10-31T22:22:30;12.50;99.90
12223;DHT22;6174;49.058;8.524;2023-10-31T22:24:57;12.60;99.90
12223;DHT22;6174;49.058;8.524;2023-10-31T22:27:24;12.60;99.90
12223;DHT22;6174;49.058;8.524;2023-10-31T22:29:51;12.40;99.90
12223;DHT22;6174;49.058;8.524;2023-10-31T22:32:18;12.70;99.90
12223;DHT22;6174;49.058;8.524;2023-10-31T22:34:45;12.70;99.90
12223;DHT22;6174;49.058;8.524;2023-10-31T22:37:13;12.70;99.90
12223;DHT22;6174;49.058;8.524;2023-10-31T22:39:40;12.60;99.90
12223;DHT22;6174;49.058;8.524;2023-10-31T22:42:07;12.80;99.90
12223;DHT22;6174;49.058;8.524;2023-10-31T22:44:35;12.80;99.90
12223;DHT22;6174;49.058;8.524;2023-10-31T22:47:02;12.80;99.90
12223;DHT22;6174;49.058;8.524;2023-10-31T22:49:29;12.80;99.90
12223;DHT22;6174;49.058;8.524;2023-10-31T22:51:56;12.90;99.90
12223;DHT22;6174;49.058;8.524;2023-10-31T22:54:24;12.80;99.90
12223;DHT22;6174;49.058;8.524;2023-10-31T22:56:51;12.90;99.90
12223;DHT22;6174;49.058;8.524;2023-10-31T22:59:18;13.00;99.90
12223;DHT22;6174;49.058;8.524;2023-10-31T23:01:45;13.00;99.90
12223;DHT22;6174;49.058;8.524;2023-10-31T23:04:26;13.00;99.90
12223;DHT22;6174;49.058;8.524;2023-10-31T23:06:56;12.90;99.90
12223;DHT22;6174;49.058;8.524;2023-10-31T23:09:23;12.90;99.90
12223;DHT22;6174;49.058;8.524;2023-10-31T23:11:49;13.00;99.90
12223;DHT22;6174;49.058;8.524;2023-10-31T23:14:16;13.00;99.90
12223;DHT22;6174;49.058;8.524;2023-10-31T23:16:43;13.00;99.90
12223;DHT22;6174;49.058;8.524;2023-10-31T23:19:10;12.90;99.90
12223;DHT22;6174;49.058;8.524;2023-10-31T23:21:41;12.90;99.90
12223;DHT22;6174;49.058;8.524;2023-10-31T23:24:11;13.10;99.90
12223;DHT22;6174;49.058;8.524;2023-10-31T23:26:38;12.80;99.90
12223;DHT22;6174;49.058;8.524;2023-10-31T23:29:06;12.70;99.90
